createdAt,value
2019-05-06T11:23:04.620Z,979.55
2019-05-06T11:24:06.700Z,979.55
2019-05-06T11:25:05.202Z,979.55
2019-05-06T11:26:05.257Z,979.43
2019-05-06T11:27:05.263Z,979.46
2019-05-06T11:28:05.356Z,979.46
2019-05-06T11:31:38.062Z,979.57
2019-05-06T11:32:04.514Z,979.54
2019-05-06T11:33:05.148Z,979.53
2019-05-06T11:34:04.706Z,979.42
2019-05-06T11:35:04.915Z,979.41
2019-05-06T11:36:04.901Z,979.38
2019-05-06T11:37:04.854Z,979.46
2019-05-06T11:38:05.331Z,979.46
2019-05-06T11:39:04.943Z,979.51
2019-05-06T11:40:04.466Z,979.40
2019-05-06T11:41:04.516Z,979.31
2019-05-06T11:42:32.001Z,979.37
2019-05-06T11:43:04.864Z,979.40
2019-05-06T11:44:09.379Z,979.40
2019-05-06T11:45:04.847Z,979.31
2019-05-06T11:46:05.348Z,979.40
2019-05-06T11:47:05.331Z,979.37
2019-05-06T11:48:04.787Z,979.43
2019-05-06T11:49:04.988Z,979.37
2019-05-06T11:50:05.461Z,979.40
2019-05-06T11:51:05.101Z,979.37
2019-05-06T11:52:04.487Z,979.32
2019-05-06T11:53:04.934Z,979.35
2019-05-06T11:54:20.261Z,979.52
2019-05-06T11:55:04.457Z,979.27
2019-05-06T11:56:04.485Z,979.49
2019-05-06T11:57:04.885Z,979.44
2019-05-06T11:58:04.476Z,979.38
2019-05-06T11:59:09.714Z,979.55
2019-05-06T12:00:05.044Z,979.44
2019-05-06T12:01:05.248Z,979.50
2019-05-06T12:02:05.210Z,979.58
2019-05-06T12:03:04.829Z,979.38
2019-05-06T12:08:09.784Z,979.37
2019-05-06T12:09:06.850Z,979.42
2019-05-06T12:10:04.414Z,979.28
2019-05-06T12:11:04.376Z,979.33
2019-05-06T12:12:04.949Z,979.42
2019-05-06T12:13:04.925Z,979.27
2019-05-06T12:14:05.004Z,979.24
2019-05-06T12:15:07.576Z,979.30
2019-05-06T12:16:05.042Z,979.35
2019-05-06T12:17:04.748Z,979.38
2019-05-06T12:18:05.010Z,979.24
2019-05-06T12:19:04.931Z,979.29
2019-05-06T12:20:04.390Z,979.29
2019-05-06T12:21:18.563Z,979.29
2019-05-06T12:22:04.362Z,979.32
2019-05-06T12:23:05.152Z,979.15
2019-05-06T12:24:05.027Z,979.35
2019-05-06T12:25:05.387Z,979.24
2019-05-06T12:26:05.322Z,979.27
2019-05-06T12:27:04.697Z,979.21
2019-05-06T12:28:04.817Z,979.27
2019-05-06T12:29:04.546Z,979.30
2019-05-06T12:30:05.823Z,979.36
2019-05-06T12:31:04.395Z,979.39
2019-05-06T12:32:04.380Z,979.38
2019-05-06T12:33:04.858Z,979.38
2019-05-06T12:34:04.501Z,979.38
2019-05-06T12:35:04.490Z,979.33
2019-05-06T12:36:04.850Z,979.30
2019-05-06T12:37:04.972Z,979.41
2019-05-06T12:38:27.301Z,979.21
2019-05-06T12:39:07.038Z,979.38
2019-05-06T12:40:04.626Z,979.32
2019-05-06T12:41:04.879Z,979.35
2019-05-06T12:42:04.936Z,979.29
2019-05-06T12:43:04.744Z,979.37
2019-05-06T12:44:04.763Z,979.34
2019-05-06T12:45:05.156Z,979.37
2019-05-06T12:46:05.207Z,979.39
2019-05-06T12:47:05.377Z,979.33
2019-05-06T12:48:05.428Z,979.36
2019-05-06T12:49:05.430Z,979.16
2019-05-06T12:50:04.551Z,979.24
2019-05-06T12:51:04.733Z,979.30
2019-05-06T12:52:05.159Z,979.21
2019-05-06T12:53:05.152Z,979.23
2019-05-06T12:54:05.432Z,979.15
2019-05-06T12:55:21.593Z,979.14
2019-05-06T12:56:05.144Z,979.17
2019-05-06T12:57:05.123Z,979.20
2019-05-06T12:58:04.709Z,979.28
2019-05-06T12:59:04.585Z,979.14
2019-05-06T13:00:04.546Z,979.22
2019-05-06T13:01:04.888Z,979.08
2019-05-06T13:02:05.258Z,979.34
2019-05-06T13:03:05.395Z,979.14
2019-05-06T13:04:05.471Z,979.31
2019-05-06T13:05:05.260Z,979.11
2019-05-06T13:06:08.594Z,979.17
2019-05-06T13:07:09.872Z,979.23
2019-05-06T13:08:07.008Z,979.12
2019-05-06T13:09:05.641Z,979.12
2019-05-06T13:10:04.452Z,979.12
2019-05-06T13:11:04.489Z,979.14
2019-05-06T13:12:04.697Z,979.14
2019-05-06T13:13:04.466Z,979.14
2019-05-06T13:14:04.978Z,979.29
2019-05-06T13:15:08.408Z,979.11
2019-05-06T13:16:04.906Z,979.20
2019-05-06T13:17:05.352Z,979.11
2019-05-06T13:18:07.751Z,979.14
2019-05-06T13:19:05.278Z,979.19
2019-05-06T13:20:04.760Z,979.13
2019-05-06T13:21:07.001Z,979.16
2019-05-06T13:22:04.510Z,979.16
2019-05-06T13:23:20.381Z,979.04
2019-05-06T13:24:05.135Z,979.21
2019-05-06T13:25:05.162Z,979.09
2019-05-06T13:26:05.264Z,979.21
2019-05-06T13:27:04.464Z,979.18
2019-05-06T13:28:04.544Z,979.24
2019-05-06T13:29:05.104Z,979.24
2019-05-06T13:30:04.929Z,979.12
2019-05-06T13:31:21.488Z,979.19
2019-05-06T13:32:05.199Z,979.22
2019-05-06T13:33:05.417Z,979.19
2019-05-06T13:34:04.790Z,979.17
2019-05-06T13:35:04.848Z,979.26
2019-05-06T13:36:04.801Z,979.26
2019-05-06T13:37:05.456Z,979.32
2019-05-06T13:38:05.043Z,979.15
2019-05-06T13:39:15.134Z,979.18
2019-05-06T13:40:05.058Z,979.21
2019-05-06T13:41:05.065Z,979.24
2019-05-06T13:42:05.060Z,979.18
2019-05-06T13:43:05.291Z,979.27
2019-05-06T13:44:04.576Z,979.24
2019-05-06T13:45:04.994Z,979.24
2019-05-06T13:46:07.806Z,979.30
2019-05-06T13:47:05.340Z,979.10
2019-05-06T13:48:05.375Z,979.27
2019-05-06T13:49:05.256Z,979.19
2019-05-06T13:50:04.673Z,979.28
2019-05-06T13:51:05.431Z,979.22
2019-05-06T13:52:05.314Z,979.16
2019-05-06T13:53:14.512Z,979.22
2019-05-06T13:54:05.410Z,979.25
2019-05-06T13:55:05.428Z,979.16
2019-05-06T13:56:05.276Z,979.22
2019-05-06T13:57:04.615Z,979.25
2019-05-06T13:58:04.635Z,979.28
2019-05-06T13:59:05.635Z,979.11
2019-05-06T14:00:05.249Z,979.13
2019-05-06T14:01:04.704Z,979.11
2019-05-06T14:02:08.303Z,979.13
2019-05-06T14:03:05.137Z,979.10
2019-05-06T14:04:04.810Z,979.19
2019-05-06T14:05:05.091Z,979.13
2019-05-06T14:06:04.609Z,979.05
2019-05-06T14:07:07.871Z,978.99
2019-05-06T14:08:05.194Z,979.05
2019-05-06T14:09:04.933Z,979.02
2019-05-06T14:10:04.785Z,979.07
2019-05-06T14:11:04.819Z,979.10
2019-05-06T14:12:04.854Z,979.10
2019-05-06T14:13:04.462Z,979.02
2019-05-06T14:14:04.775Z,979.16
2019-05-06T14:15:04.902Z,979.10
2019-05-06T14:16:04.606Z,979.05
2019-05-06T14:17:04.715Z,979.02
2019-05-06T14:18:04.848Z,979.19
2019-05-06T14:19:04.996Z,979.02
2019-05-06T14:20:05.558Z,979.13
2019-05-06T14:21:04.716Z,979.19
2019-05-06T14:22:04.927Z,979.22
2019-05-06T14:23:05.197Z,979.22
2019-05-06T14:24:04.560Z,979.02
2019-05-06T14:25:04.786Z,979.22
2019-05-06T14:26:04.703Z,979.31
2019-05-06T14:27:05.461Z,979.31
2019-05-06T14:28:05.227Z,979.20
2019-05-06T14:29:05.702Z,979.20
2019-05-06T14:30:05.291Z,979.09
2019-05-06T14:31:05.155Z,979.14
2019-05-06T14:32:05.244Z,979.06
2019-05-06T14:33:04.788Z,979.18
2019-05-06T14:34:04.724Z,979.20
2019-05-06T14:35:04.994Z,979.06
2019-05-06T14:36:05.363Z,979.04
2019-05-06T14:37:04.611Z,979.21
2019-05-06T14:38:04.777Z,979.21
2019-05-06T14:39:05.378Z,979.24
2019-05-06T14:40:04.964Z,979.13
2019-05-06T14:41:08.552Z,979.18
2019-05-06T14:42:05.255Z,979.36
2019-05-06T14:43:05.682Z,979.24
2019-05-06T14:44:08.911Z,979.07
2019-05-06T14:45:05.010Z,979.22
2019-05-06T14:46:04.639Z,979.33
2019-05-06T14:47:04.707Z,979.13
2019-05-06T14:48:05.077Z,979.25
2019-05-06T14:49:05.030Z,979.25
2019-05-06T14:50:05.077Z,979.25
2019-05-06T14:51:04.506Z,979.28
2019-05-06T14:52:05.153Z,979.39
2019-05-06T14:53:05.051Z,979.22
2019-05-06T14:54:05.242Z,979.39
2019-05-06T14:55:04.732Z,979.25
2019-05-06T14:56:04.647Z,979.34
2019-05-06T14:57:05.438Z,979.22
2019-05-06T14:58:04.930Z,979.25
2019-05-06T14:59:04.604Z,979.20
2019-05-06T15:00:05.023Z,979.23
2019-05-06T15:01:04.738Z,979.42
2019-05-06T15:02:04.706Z,979.28
2019-05-06T15:03:05.354Z,979.31
2019-05-06T15:04:04.827Z,979.46
2019-05-06T15:05:05.308Z,979.23
2019-05-06T15:06:05.322Z,979.20
2019-05-06T15:07:05.274Z,979.49
2019-05-06T15:08:04.728Z,979.23
2019-05-06T15:09:05.168Z,979.26
2019-05-06T15:10:22.816Z,979.31
2019-05-06T15:11:04.770Z,979.03
2019-05-06T15:12:05.364Z,979.28
2019-05-06T15:13:05.165Z,979.31
2019-05-06T15:14:04.876Z,979.31
2019-05-06T15:15:05.249Z,979.25
2019-05-06T15:16:04.718Z,979.23
2019-05-06T15:17:05.314Z,979.17
2019-05-06T15:18:04.856Z,979.14
2019-05-06T15:19:05.743Z,979.23
2019-05-06T15:20:04.997Z,979.17
2019-05-06T15:21:38.260Z,979.37
2019-05-06T15:22:04.737Z,979.20
2019-05-06T15:23:05.041Z,979.34
2019-05-06T15:24:05.775Z,979.29
2019-05-06T15:25:05.573Z,979.32
2019-05-06T15:26:05.431Z,979.29
2019-05-06T15:27:04.875Z,979.26
2019-05-06T15:28:05.538Z,979.29
2019-05-06T15:29:04.950Z,979.23
2019-05-06T15:30:05.055Z,979.32
2019-05-06T15:31:05.059Z,979.26
2019-05-06T15:32:05.020Z,979.29
2019-05-06T15:33:05.638Z,979.37
2019-05-06T15:34:05.285Z,979.20
2019-05-06T15:35:05.426Z,979.23
2019-05-06T15:36:05.186Z,979.26
2019-05-06T15:37:05.160Z,979.26
2019-05-06T15:38:06.002Z,979.20
2019-05-06T15:39:05.547Z,979.35
2019-05-06T15:40:05.433Z,979.35
2019-05-06T15:41:05.168Z,979.40
2019-05-06T15:42:05.441Z,979.29
2019-05-06T15:43:05.903Z,979.37
2019-05-06T15:44:05.942Z,979.37
2019-05-06T15:45:05.320Z,979.35
2019-05-06T15:46:06.281Z,979.35
2019-05-06T15:47:06.026Z,979.40
2019-05-06T15:48:05.476Z,979.32
2019-05-06T15:49:05.354Z,979.32
2019-05-06T15:50:05.110Z,979.31
2019-05-06T15:51:05.475Z,979.37
2019-05-06T15:52:05.262Z,979.31
2019-05-06T15:53:05.716Z,979.26
2019-05-06T15:54:05.702Z,979.34
2019-05-06T15:55:05.238Z,979.26
2019-05-06T15:56:06.391Z,979.34
2019-05-06T15:57:05.432Z,979.34
2019-05-06T15:58:12.210Z,979.31
2019-05-06T15:59:05.092Z,979.23
2019-05-06T16:00:05.681Z,979.32
2019-05-06T16:01:05.086Z,979.29
2019-05-06T16:02:06.657Z,979.32
2019-05-06T16:03:04.990Z,979.35
2019-05-06T16:04:05.244Z,979.23
2019-05-06T16:05:19.367Z,979.26
2019-05-06T16:06:05.046Z,979.29
2019-05-06T16:07:05.526Z,979.21
2019-05-06T16:08:05.300Z,979.35
2019-05-06T16:09:05.861Z,979.18
2019-05-06T16:10:05.657Z,979.21
2019-05-06T16:11:05.373Z,979.21
2019-05-06T16:12:05.527Z,979.27
2019-05-06T16:13:04.997Z,979.27
2019-05-06T16:14:04.915Z,979.24
2019-05-06T16:15:04.760Z,979.29
2019-05-06T16:16:07.718Z,979.26
2019-05-06T16:17:06.039Z,979.26
2019-05-06T16:18:05.821Z,979.32
2019-05-06T16:19:05.808Z,979.32
2019-05-06T16:20:05.703Z,979.40
2019-05-06T16:21:05.274Z,979.32
2019-05-06T16:22:05.692Z,979.29
2019-05-06T16:23:05.309Z,979.20
2019-05-06T16:24:06.004Z,979.32
2019-05-06T16:25:05.894Z,979.18
2019-05-06T16:26:05.700Z,979.29
2019-05-06T16:27:05.301Z,979.26
2019-05-06T16:28:05.571Z,979.35
2019-05-06T16:29:05.462Z,979.21
2019-05-06T16:30:05.022Z,979.21
2019-05-06T16:31:05.858Z,979.09
2019-05-06T16:32:05.335Z,979.21
2019-05-06T16:33:05.283Z,979.29
2019-05-06T16:34:05.073Z,979.18
2019-05-06T16:35:05.954Z,979.07
2019-05-06T16:36:05.908Z,979.07
2019-05-06T16:37:05.869Z,979.24
2019-05-06T16:38:05.719Z,979.24
2019-05-06T16:39:08.053Z,979.27
2019-05-06T16:40:06.965Z,979.30
2019-05-06T16:41:16.268Z,979.18
2019-05-06T16:42:05.881Z,979.21
2019-05-06T16:43:06.018Z,979.27
2019-05-06T16:44:06.102Z,979.30
2019-05-06T16:45:07.647Z,979.21
2019-05-06T16:46:05.886Z,979.32
2019-05-06T16:47:05.885Z,979.21
2019-05-06T16:48:05.197Z,979.24
2019-05-06T16:49:05.550Z,979.18
2019-05-06T16:50:05.459Z,979.27
2019-05-06T16:51:05.827Z,979.18
2019-05-06T16:52:05.499Z,979.18
2019-05-06T16:53:05.388Z,979.27
2019-05-06T16:54:05.981Z,979.19
2019-05-06T16:55:05.811Z,979.30
2019-05-06T16:56:05.672Z,979.24
2019-05-06T16:57:05.290Z,979.22
2019-05-06T16:58:06.114Z,979.24
2019-05-06T16:59:05.856Z,979.33
2019-05-06T17:05:06.110Z,979.36
2019-05-06T17:06:05.512Z,979.28
2019-05-06T17:07:06.387Z,979.31
2019-05-06T17:08:05.598Z,979.19
2019-05-06T17:09:21.731Z,979.19
2019-05-06T17:10:06.211Z,979.31
2019-05-06T17:11:06.039Z,979.22
2019-05-06T17:12:05.968Z,979.17
2019-05-06T17:13:05.977Z,979.22
2019-05-06T17:14:05.431Z,979.17
2019-05-06T17:15:06.064Z,979.31
2019-05-06T17:16:06.025Z,979.17
2019-05-06T17:17:05.866Z,979.23
2019-05-06T17:18:05.848Z,979.23
2019-05-06T17:19:05.750Z,979.31
2019-05-06T17:20:06.247Z,979.14
2019-05-06T17:21:06.786Z,979.23
2019-05-06T17:22:06.030Z,979.15
2019-05-06T17:23:06.105Z,979.26
2019-05-06T17:24:06.183Z,979.23
2019-05-06T17:25:06.277Z,979.29
2019-05-06T17:26:06.288Z,979.24
2019-05-06T17:27:05.579Z,979.26
2019-05-06T17:28:05.682Z,979.29
2019-05-06T17:29:05.731Z,979.27
2019-05-06T17:30:06.003Z,979.27
2019-05-06T17:31:05.912Z,979.35
2019-05-06T17:32:05.644Z,979.30
2019-05-06T17:33:05.579Z,979.21
2019-05-06T17:34:05.387Z,979.27
2019-05-06T17:35:05.489Z,979.19
2019-05-06T17:36:05.514Z,979.30
2019-05-06T17:37:05.281Z,979.27
2019-05-06T17:38:05.975Z,979.27
2019-05-06T17:39:05.501Z,979.27
2019-05-06T17:40:13.891Z,979.27
2019-05-06T17:41:05.990Z,979.39
2019-05-06T17:42:05.372Z,979.36
2019-05-06T17:43:05.530Z,979.30
2019-05-06T17:44:05.265Z,979.33
2019-05-06T17:45:05.463Z,979.25
2019-05-06T17:46:12.487Z,979.19
2019-05-06T17:47:05.507Z,979.30
2019-05-06T17:48:05.371Z,979.22
2019-05-06T17:49:06.165Z,979.13
2019-05-06T17:50:05.985Z,979.16
2019-05-06T17:51:06.012Z,979.05
2019-05-06T17:52:05.695Z,979.24
2019-05-06T17:53:05.798Z,979.22
2019-05-06T17:54:05.453Z,979.19
2019-05-06T17:55:05.556Z,979.27
2019-05-06T17:56:05.340Z,979.13
2019-05-06T17:57:05.539Z,979.13
2019-05-06T17:58:05.789Z,979.28
2019-05-06T17:59:07.013Z,979.22
2019-05-06T18:00:06.281Z,979.28
2019-05-06T18:01:06.316Z,979.19
2019-05-06T18:02:06.105Z,979.19
2019-05-06T18:03:05.990Z,979.20
2019-05-06T18:04:05.740Z,979.14
2019-05-06T18:05:05.847Z,979.23
2019-05-06T18:06:13.830Z,979.37
2019-05-06T18:07:06.197Z,979.25
2019-05-06T18:08:05.432Z,979.23
2019-05-06T18:09:05.823Z,979.23
2019-05-06T18:10:05.469Z,979.31
2019-05-06T18:11:06.020Z,979.26
2019-05-06T18:12:05.799Z,979.46
2019-05-06T18:13:08.082Z,979.37
2019-05-06T18:14:05.349Z,979.29
2019-05-06T18:15:05.789Z,979.40
2019-05-06T18:16:05.834Z,979.29
2019-05-06T18:17:05.827Z,979.32
2019-05-06T18:18:05.759Z,979.41
2019-05-06T18:19:05.704Z,979.38
2019-05-06T18:20:05.499Z,979.38
2019-05-06T18:21:05.832Z,979.38
2019-05-06T18:22:06.472Z,979.32
2019-05-06T18:23:06.013Z,979.35
2019-05-06T18:24:05.941Z,979.38
2019-05-06T18:25:06.025Z,979.36
2019-05-06T18:26:05.968Z,979.50
2019-05-06T18:27:06.865Z,979.42
2019-05-06T18:28:06.080Z,979.56
2019-05-06T18:29:05.800Z,979.39
2019-05-06T18:30:25.366Z,979.34
2019-05-06T18:31:05.971Z,979.34
2019-05-06T18:32:06.106Z,979.46
2019-05-06T18:33:05.955Z,979.32
2019-05-06T18:34:07.238Z,979.46
2019-05-06T18:35:05.617Z,979.46
2019-05-06T18:36:07.082Z,979.46
2019-05-06T18:37:06.254Z,979.38
2019-05-06T18:38:06.345Z,979.35
2019-05-06T18:39:05.681Z,979.47
2019-05-06T18:40:05.481Z,979.50
2019-05-06T18:41:05.363Z,979.47
2019-05-06T18:42:20.307Z,979.50
2019-05-06T18:43:05.890Z,979.59
2019-05-06T18:44:05.717Z,979.64
2019-05-06T18:45:05.491Z,979.67
2019-05-06T18:46:05.569Z,979.53
2019-05-06T18:47:05.638Z,979.68
2019-05-06T18:48:05.312Z,979.54
2019-05-06T18:49:05.664Z,979.51
2019-05-06T18:50:05.448Z,979.54
2019-05-06T18:51:05.620Z,979.54
2019-05-06T18:52:05.309Z,979.63
2019-05-06T18:53:05.754Z,979.60
2019-05-06T18:54:05.542Z,979.63
2019-05-06T18:55:05.739Z,979.65
2019-05-06T18:56:05.822Z,979.60
2019-05-06T18:57:14.641Z,979.57
2019-05-06T18:58:05.892Z,979.71
2019-05-06T18:59:05.893Z,979.71
2019-05-06T19:00:06.164Z,979.71
2019-05-06T19:01:05.916Z,979.74
2019-05-06T19:02:06.768Z,979.74
2019-05-06T19:03:06.025Z,979.68
2019-05-06T19:04:05.419Z,979.74
2019-05-06T19:05:06.264Z,979.77
2019-05-06T19:06:05.654Z,979.66
2019-05-06T19:07:17.092Z,979.66
2019-05-06T19:08:06.223Z,979.74
2019-05-06T19:09:06.748Z,979.74
2019-05-06T19:10:06.468Z,979.83
2019-05-06T19:11:06.781Z,979.77
2019-05-06T19:12:06.045Z,979.83
2019-05-06T19:13:06.996Z,979.83
2019-05-06T19:14:06.039Z,979.83
2019-05-06T19:15:05.357Z,979.78
2019-05-06T19:16:07.143Z,979.78
2019-05-06T19:17:05.436Z,979.72
2019-05-06T19:18:05.320Z,979.91
2019-05-06T19:19:06.746Z,979.84
2019-05-06T19:20:05.570Z,979.86
2019-05-06T19:21:07.341Z,979.84
2019-05-06T19:22:05.099Z,979.84
2019-05-06T19:23:05.940Z,979.84
2019-05-06T19:24:05.919Z,979.81
2019-05-06T19:25:05.716Z,979.75
2019-05-06T19:26:05.627Z,979.86
2019-05-06T19:27:05.554Z,979.78
2019-05-06T19:28:06.140Z,979.97
2019-05-06T19:29:05.373Z,979.92
2019-05-06T19:30:05.359Z,979.86
2019-05-06T19:31:05.125Z,979.86
2019-05-06T19:32:05.412Z,979.92
2019-05-06T19:33:07.812Z,979.92
2019-05-06T19:34:05.403Z,979.92
2019-05-06T19:35:05.620Z,979.92
2019-05-06T19:36:05.771Z,979.89
2019-05-06T19:37:05.634Z,979.95
2019-05-06T19:38:07.119Z,979.98
2019-05-06T19:39:05.799Z,979.89
2019-05-06T19:40:06.315Z,980.01
2019-05-06T19:41:06.715Z,980.09
2019-05-06T19:42:06.122Z,979.98
2019-05-06T19:43:05.855Z,979.98
2019-05-06T19:44:06.080Z,979.82
2019-05-06T19:45:06.387Z,979.98
2019-05-06T19:46:05.872Z,979.90
2019-05-06T19:47:05.554Z,980.01
2019-05-06T19:48:05.509Z,979.99
2019-05-06T19:49:05.244Z,979.83
2019-05-06T19:50:05.264Z,979.99
2019-05-06T19:51:05.533Z,979.87
2019-05-06T19:52:05.171Z,979.90
2019-05-06T19:53:05.962Z,979.91
2019-05-06T19:54:05.875Z,979.99
2019-05-06T19:55:05.978Z,979.88
2019-05-06T19:56:06.821Z,979.99
2019-05-06T19:57:15.875Z,979.88
2019-05-06T19:58:05.712Z,980.05
2019-05-06T19:59:06.326Z,979.88
2019-05-06T20:00:05.848Z,979.88
2019-05-06T20:01:05.792Z,979.88
2019-05-06T20:02:05.864Z,979.88
2019-05-06T20:03:05.982Z,979.83
2019-05-06T20:04:05.752Z,980.05
2019-05-06T20:05:05.863Z,979.99
2019-05-06T20:06:05.129Z,979.94
2019-05-06T20:07:06.428Z,980.11
2019-05-06T20:08:05.760Z,980.02
2019-05-06T20:09:05.851Z,979.99
2019-05-06T20:10:05.931Z,980.02
2019-05-06T20:11:05.827Z,979.94
2019-05-06T20:12:06.017Z,980.02
2019-05-06T20:13:06.097Z,979.94
2019-05-06T20:14:05.622Z,979.94
2019-05-06T20:15:05.926Z,979.86
2019-05-06T20:16:05.673Z,979.91
2019-05-06T20:17:05.846Z,979.94
2019-05-06T20:18:05.604Z,979.94
2019-05-06T20:19:05.363Z,980.05
2019-05-06T20:20:05.336Z,979.91
2019-05-06T20:21:06.152Z,980.08
2019-05-06T20:22:05.889Z,980.03
2019-05-06T20:23:05.801Z,980.03
2019-05-06T20:24:05.454Z,979.94
2019-05-06T20:25:06.523Z,979.88
2019-05-06T20:26:05.708Z,980.00
2019-05-06T20:27:05.583Z,980.08
2019-05-06T20:28:05.192Z,980.00
2019-05-06T20:29:05.149Z,979.97
2019-05-06T20:30:06.291Z,980.03
2019-05-06T20:31:05.291Z,979.94
2019-05-06T20:32:05.984Z,979.89
2019-05-06T20:33:06.107Z,980.00
2019-05-06T20:34:05.339Z,979.95
2019-05-06T20:35:07.213Z,980.00
2019-05-06T20:36:05.438Z,979.82
2019-05-06T20:37:05.265Z,979.89
2019-05-06T20:38:05.895Z,979.86
2019-05-06T20:39:05.669Z,979.89
2019-05-06T20:40:05.550Z,979.86
2019-05-06T20:41:05.111Z,979.89
2019-05-06T20:42:05.752Z,979.86
2019-05-06T20:43:20.579Z,979.76
2019-05-06T20:44:05.080Z,979.92
2019-05-06T20:45:05.711Z,979.85
2019-05-06T20:46:05.609Z,979.92
2019-05-06T20:47:05.196Z,979.82
2019-05-06T20:48:05.950Z,979.71
2019-05-06T20:49:05.595Z,979.92
2019-05-06T20:50:05.295Z,979.77
2019-05-06T20:51:06.005Z,979.74
2019-05-06T20:52:06.017Z,979.71
2019-05-06T20:53:05.706Z,979.82
2019-05-06T20:54:05.368Z,979.71
2019-05-06T20:55:15.975Z,979.77
2019-05-06T20:56:05.342Z,979.74
2019-05-06T20:57:05.890Z,979.93
2019-05-06T20:58:05.587Z,979.60
2019-05-06T20:59:04.895Z,979.85
2019-05-06T21:00:07.973Z,980.01
2019-05-06T21:01:05.100Z,979.80
2019-05-06T21:02:05.675Z,979.77
2019-05-06T21:03:05.911Z,979.57
2019-05-06T21:04:05.715Z,979.66
2019-05-06T21:05:13.776Z,979.80
2019-05-06T21:06:04.987Z,979.77
2019-05-06T21:07:04.909Z,979.77
2019-05-06T21:08:05.926Z,979.68
2019-05-06T21:09:05.673Z,979.68
2019-05-06T21:10:05.942Z,979.74
2019-05-06T21:11:05.623Z,979.80
2019-05-06T21:12:05.191Z,979.80
2019-05-06T21:13:05.172Z,979.66
2019-05-06T21:14:05.994Z,979.68
2019-05-06T21:15:05.398Z,979.71
2019-05-06T21:16:05.697Z,979.74
2019-05-06T21:17:05.719Z,979.71
2019-05-06T21:18:05.018Z,979.63
2019-05-06T21:19:04.998Z,979.72
2019-05-06T21:20:05.123Z,979.63
2019-05-06T21:21:05.150Z,979.80
2019-05-06T21:22:05.559Z,979.63
2019-05-06T21:23:05.459Z,979.63
2019-05-06T21:24:04.914Z,979.69
2019-05-06T21:25:05.211Z,979.66
2019-05-06T21:26:05.495Z,979.60
2019-05-06T21:27:05.105Z,979.72
2019-05-06T21:28:04.807Z,979.66
2019-05-06T21:29:04.908Z,979.61
2019-05-06T21:30:05.400Z,979.64
2019-05-06T21:31:05.027Z,979.64
2019-05-06T21:32:05.188Z,979.67
2019-05-06T21:33:04.591Z,979.64
2019-05-06T21:34:04.812Z,979.73
2019-05-06T21:35:05.271Z,979.61
2019-05-06T21:36:04.786Z,979.84
2019-05-06T21:37:04.618Z,979.62
2019-05-06T21:38:04.755Z,979.70
2019-05-06T21:39:05.267Z,979.79
2019-05-06T21:40:04.492Z,979.73
2019-05-06T21:41:05.013Z,979.76
2019-05-06T21:42:04.603Z,979.79
2019-05-06T21:43:04.612Z,979.71
2019-05-06T21:44:05.242Z,979.77
2019-05-06T21:45:05.396Z,979.77
2019-05-06T21:46:05.408Z,979.63
2019-05-06T21:47:04.707Z,979.69
2019-05-06T21:48:04.993Z,979.69
2019-05-06T21:49:05.034Z,979.55
2019-05-06T21:50:04.600Z,979.63
2019-05-06T21:51:04.929Z,979.66
2019-05-06T21:52:05.005Z,979.66
2019-05-06T21:53:04.580Z,979.55
2019-05-06T21:54:04.877Z,979.58
2019-05-06T21:55:04.917Z,979.67
2019-05-06T21:56:04.615Z,979.61
2019-05-06T21:57:04.721Z,979.75
2019-05-06T21:58:04.749Z,979.67
2019-05-06T21:59:04.973Z,979.81
2019-05-06T22:00:05.475Z,979.67
2019-05-06T22:01:04.782Z,979.62
2019-05-06T22:02:05.190Z,979.62
2019-05-06T22:03:04.787Z,979.51
2019-05-06T22:04:05.296Z,979.51
2019-05-06T22:05:05.301Z,979.68
2019-05-06T22:06:05.264Z,979.51
2019-05-06T22:07:04.514Z,979.62
2019-05-06T22:08:04.701Z,979.51
2019-05-06T22:09:04.624Z,979.63
2019-05-06T22:10:04.822Z,979.66
2019-05-06T22:11:05.370Z,979.60
2019-05-06T22:12:04.820Z,979.68
2019-05-06T22:13:04.666Z,979.52
2019-05-06T22:14:05.108Z,979.63
2019-05-06T22:15:05.426Z,979.63
2019-05-06T22:16:05.358Z,979.55
2019-05-06T22:17:05.435Z,979.43
2019-05-06T22:18:04.442Z,979.38
2019-05-06T22:19:05.034Z,979.52
2019-05-06T22:20:04.977Z,979.49
2019-05-06T22:21:05.038Z,979.50
2019-05-06T22:22:04.456Z,979.66
2019-05-06T22:23:05.082Z,979.44
2019-05-06T22:24:05.165Z,979.50
2019-05-06T22:25:04.813Z,979.58
2019-05-06T22:26:16.240Z,979.53
2019-05-06T22:27:04.904Z,979.50
2019-05-06T22:28:05.095Z,979.36
2019-05-06T22:29:04.651Z,979.56
2019-05-06T22:30:04.816Z,979.56
2019-05-06T22:31:05.151Z,979.42
2019-05-06T22:32:05.183Z,979.51
2019-05-06T22:33:04.797Z,979.62
2019-05-06T22:34:04.828Z,979.51
2019-05-06T22:35:05.157Z,979.56
2019-05-06T22:36:04.451Z,979.48
2019-05-06T22:37:04.479Z,979.62
2019-05-06T22:38:05.169Z,979.43
2019-05-06T22:39:05.365Z,979.54
2019-05-06T22:40:04.629Z,979.54
2019-05-06T22:41:04.594Z,979.46
2019-05-06T22:42:04.758Z,979.40
2019-05-06T22:43:04.870Z,979.46
2019-05-06T22:44:16.984Z,979.38
2019-05-06T22:45:04.542Z,979.49
2019-05-06T22:46:04.997Z,979.41
2019-05-06T22:47:05.266Z,979.46
2019-05-06T22:48:04.969Z,979.32
2019-05-06T22:49:05.051Z,979.61
2019-05-06T22:50:05.065Z,979.47
2019-05-06T22:51:04.739Z,979.38
2019-05-06T22:52:04.851Z,979.33
2019-05-06T22:53:04.821Z,979.53
2019-05-06T22:54:04.907Z,979.47
2019-05-06T22:55:04.881Z,979.42
2019-05-06T22:56:05.462Z,979.42
2019-05-06T22:57:05.385Z,979.36
2019-05-06T22:58:04.849Z,979.31
2019-05-06T22:59:05.141Z,979.34
2019-05-06T23:00:05.195Z,979.45
2019-05-06T23:01:04.929Z,979.40
2019-05-06T23:02:05.210Z,979.37
2019-05-06T23:03:04.746Z,979.31
2019-05-06T23:04:04.937Z,979.37
2019-05-06T23:05:05.211Z,979.34
2019-05-06T23:06:04.896Z,979.46
2019-05-06T23:07:05.278Z,979.29
2019-05-06T23:08:05.338Z,979.37
2019-05-06T23:09:05.278Z,979.35
2019-05-06T23:10:04.672Z,979.35
2019-05-06T23:11:04.816Z,979.43
2019-05-06T23:12:05.279Z,979.26
2019-05-06T23:13:04.903Z,979.26
2019-05-06T23:14:05.216Z,979.24
2019-05-06T23:15:05.422Z,979.21
2019-05-06T23:16:05.529Z,979.32
2019-05-06T23:17:04.731Z,979.16
2019-05-06T23:18:05.111Z,979.24
2019-05-06T23:19:05.210Z,979.24
2019-05-06T23:20:04.891Z,979.21
2019-05-06T23:21:05.187Z,979.27
2019-05-06T23:22:04.696Z,979.22
2019-05-06T23:23:05.294Z,979.27
2019-05-06T23:24:04.740Z,979.19
2019-05-06T23:25:04.701Z,979.27
2019-05-06T23:26:05.305Z,979.19
2019-05-06T23:27:05.387Z,979.36
2019-05-06T23:28:04.836Z,979.22
2019-05-06T23:29:05.068Z,979.19
2019-05-06T23:30:05.344Z,979.22
2019-05-06T23:31:05.373Z,979.30
2019-05-06T23:32:04.570Z,979.25
2019-05-06T23:33:04.724Z,979.22
2019-05-06T23:34:05.536Z,979.22
2019-05-06T23:35:05.313Z,979.25
2019-05-06T23:36:05.351Z,979.16
2019-05-06T23:37:04.907Z,979.14
2019-05-06T23:38:04.852Z,979.14
2019-05-06T23:39:05.025Z,979.11
2019-05-06T23:40:05.157Z,979.22
2019-05-06T23:41:05.278Z,979.17
2019-05-06T23:42:05.279Z,979.34
2019-05-06T23:43:05.346Z,979.20
2019-05-06T23:44:05.544Z,979.12
2019-05-06T23:45:04.470Z,979.26
2019-05-06T23:46:05.155Z,979.26
2019-05-06T23:47:05.190Z,979.17
2019-05-06T23:48:05.530Z,979.31
2019-05-06T23:49:04.850Z,979.32
2019-05-06T23:50:04.654Z,979.32
2019-05-06T23:51:04.631Z,979.48
2019-05-06T23:52:05.063Z,979.21
2019-05-06T23:53:05.135Z,979.26
2019-05-06T23:54:05.379Z,979.32
2019-05-06T23:55:05.387Z,979.26
2019-05-06T23:56:04.501Z,979.29
2019-05-06T23:57:04.785Z,979.29
2019-05-06T23:58:04.753Z,979.18
2019-05-06T23:59:04.773Z,979.30
